Pagrindinis puslapis
METAR-TAF:

METAR-TAF

Oro uostai :

Kauno oro uostas

Kaunas, Lietuva

platuma: 54-54N, ilguma: 023-55-12E, Aukštis: 77 m

Dabartinis oras

Ataskaita buvo paskelbta 15 minutes, ne 18:20 UTC
Vėjas 9 kt iš Rytų/Šiaurės Rytų
Temperatūra 3°C
Drėgmė 81%
Slėgis 1032 hPa
Matomumas 10 km arba daugiau
Išsisklaidę debesys ne aukštis 1900 ft
Su prošvaistėmis ne aukštis 2500 ft
Apsiniaukę ne aukštis 4500 ft
lietus

METAR: EYKA 191820Z 07009KT 9999 -RA SCT019 BKN025 OVC045 03/00 Q1032 R08/1///95

Laikas: 20:35 (18:35 UTC)

Prognozė

Ataskaita buvo paskelbta 1 valandą ir 34 minutes, ne 17:01 UTC
Prognozė galioja nuo 19 metu 18 UTC su 20 metu 18 UTC
Vėjas 10 kt iš Rytų/Šiaurės Rytų
Matomumas: 9000 m
Apsiniaukę ne aukštis 1500 ft
Laikinai
nuo 19 metu 18 UTC su 19 metu 24 UTC
Su prošvaistėmis ne aukštis 500 ft
lietus

TAF: EYKA 191701Z 1918/2018 06010KT 9000 OVC015 TEMPO 1918/1924 -RA BKN005

Orai ataskaitas ir orų prognozės (METAR, TAF).

turimą stotys yra geltonos ir raudonos taškus žemėlapyje.

Perkelti pele per norėdami pamatyti stoties vardą.

Tada spustelėkite, norėdami matyti oro stebėjimo ir prognozės.

Norėdami pakeisti žemėlapį: spustelėkite ant žalios mygtukų su juodo kryžiaus žemyn,; žalią mygtuką su brūkšneliu, jei norite nutolinti; arba žalių rodyklių gretimoms žemėlapius.


METAR-TAF: